createdAt,value
2023-04-08T00:00:48.928Z,20.27
2023-04-08T00:03:15.319Z,20.15
2023-04-08T00:05:41.783Z,19.60
2023-04-08T00:08:08.765Z,19.48
2023-04-08T00:10:35.123Z,18.92
2023-04-08T00:13:01.590Z,19.85
2023-04-08T00:15:28.025Z,19.50
2023-04-08T00:17:54.881Z,19.35
2023-04-08T00:20:21.592Z,19.48
2023-04-08T00:22:47.917Z,18.70
2023-04-08T00:25:14.232Z,17.98
2023-04-08T00:27:40.568Z,18.08
2023-04-08T00:30:06.962Z,18.58
2023-04-08T00:32:33.671Z,17.58
2023-04-08T00:35:00.139Z,19.30
2023-04-08T00:37:26.672Z,17.83
2023-04-08T00:39:52.969Z,18.60
2023-04-08T00:42:19.293Z,18.75
2023-04-08T00:44:46.111Z,17.38
2023-04-08T00:47:12.917Z,18.38
2023-04-08T00:49:39.724Z,17.27
2023-04-08T00:52:06.069Z,17.40
2023-04-08T00:54:32.462Z,17.27
2023-04-08T00:56:58.856Z,16.17
2023-04-08T00:59:26.000Z,17.45
2023-04-08T01:01:52.421Z,15.93
2023-04-08T01:04:19.105Z,15.82
2023-04-08T01:06:45.911Z,17.45
2023-04-08T01:09:12.425Z,17.50
2023-04-08T01:11:39.210Z,17.20
2023-04-08T01:14:05.718Z,15.57
2023-04-08T01:16:32.115Z,16.63
2023-04-08T01:18:58.710Z,16.58
2023-04-08T01:21:25.249Z,17.50
2023-04-08T01:23:51.598Z,16.42
2023-04-08T01:26:17.915Z,15.02
2023-04-08T01:28:44.168Z,15.55
2023-04-08T01:31:10.593Z,16.63
2023-04-08T01:33:37.116Z,15.00
2023-04-08T01:36:03.564Z,15.45
2023-04-08T01:38:29.977Z,16.75
2023-04-08T01:40:56.370Z,17.00
2023-04-08T01:43:22.909Z,16.70
2023-04-08T01:45:49.481Z,15.27
2023-04-08T01:48:15.827Z,16.42
2023-04-08T01:50:42.185Z,16.05
2023-04-08T01:53:08.721Z,16.02
2023-04-08T01:55:35.140Z,16.67
2023-04-08T01:58:01.419Z,16.52
2023-04-08T02:00:28.005Z,14.75
2023-04-08T02:02:55.128Z,17.02
2023-04-08T02:05:21.535Z,16.23
2023-04-08T02:07:47.952Z,15.80
2023-04-08T02:10:14.399Z,16.35
2023-04-08T02:12:40.700Z,16.35
2023-04-08T02:15:07.248Z,16.73
2023-04-08T02:17:35.766Z,17.13
2023-04-08T02:20:02.727Z,16.13
2023-04-08T02:22:29.984Z,15.63
2023-04-08T02:24:56.454Z,16.63
2023-04-08T02:27:23.145Z,16.83
2023-04-08T02:29:49.790Z,15.73
2023-04-08T02:32:16.125Z,16.40
2023-04-08T02:34:42.615Z,15.80
2023-04-08T02:37:09.513Z,15.25
2023-04-08T02:39:35.877Z,16.15
2023-04-08T02:42:02.289Z,16.17
2023-04-08T02:44:29.485Z,15.63
2023-04-08T02:46:56.366Z,16.00
2023-04-08T02:49:23.277Z,16.55
2023-04-08T02:51:49.885Z,16.45
2023-04-08T02:54:16.527Z,16.05
2023-04-08T02:56:43.007Z,16.58
2023-04-08T02:59:09.381Z,15.60
2023-04-08T03:01:36.121Z,16.45
2023-04-08T03:04:02.785Z,17.42
2023-04-08T03:06:29.113Z,16.55
2023-04-08T03:08:55.452Z,17.15
2023-04-08T03:11:21.864Z,16.08
2023-04-08T03:13:48.362Z,16.15
2023-04-08T03:16:14.717Z,16.27
2023-04-08T03:18:41.047Z,16.85
2023-04-08T03:21:07.360Z,16.23
2023-04-08T03:23:33.728Z,17.15
2023-04-08T03:26:00.175Z,17.42
2023-04-08T03:28:26.757Z,16.95
2023-04-08T03:30:53.494Z,16.50
2023-04-08T03:33:19.796Z,16.20
2023-04-08T03:35:46.203Z,17.63
2023-04-08T03:38:12.738Z,16.05
2023-04-08T03:40:39.076Z,17.42
2023-04-08T03:43:05.370Z,16.77
2023-04-08T03:45:31.657Z,17.27
2023-04-08T03:47:58.057Z,16.55
2023-04-08T03:50:24.584Z,17.02
2023-04-08T03:52:51.125Z,17.70
2023-04-08T03:55:17.554Z,16.75
2023-04-08T03:57:44.080Z,16.83
2023-04-08T04:00:10.430Z,17.90
2023-04-08T04:02:36.868Z,17.48
2023-04-08T04:05:03.386Z,16.88
2023-04-08T04:07:29.729Z,17.55
2023-04-08T04:09:56.083Z,17.80
2023-04-08T04:12:22.573Z,17.38
2023-04-08T04:14:48.936Z,17.40
2023-04-08T04:17:15.371Z,16.55
2023-04-08T04:19:41.706Z,17.00
2023-04-08T04:22:08.153Z,18.30
2023-04-08T04:24:34.595Z,17.23
2023-04-08T04:27:00.917Z,17.10
2023-04-08T04:29:27.454Z,16.83
2023-04-08T04:31:53.790Z,17.20
2023-04-08T04:34:20.161Z,17.50
2023-04-08T04:36:46.464Z,17.88
2023-04-08T04:39:12.801Z,17.30
2023-04-08T04:41:39.774Z,17.50
2023-04-08T04:44:06.099Z,19.10
2023-04-08T04:46:32.501Z,17.60
2023-04-08T04:48:59.347Z,18.33
2023-04-08T04:51:25.651Z,17.35
2023-04-08T04:53:51.991Z,17.60
2023-04-08T04:56:18.298Z,18.40
2023-04-08T04:58:44.595Z,18.35
2023-04-08T05:01:10.982Z,18.92
2023-04-08T05:03:37.910Z,18.45
2023-04-08T05:06:04.273Z,18.13
2023-04-08T05:08:30.811Z,18.92
2023-04-08T05:10:57.567Z,19.80
2023-04-08T05:13:24.069Z,18.90
2023-04-08T05:15:50.505Z,18.92
2023-04-08T05:18:16.899Z,18.10
2023-04-08T05:20:43.573Z,19.13
2023-04-08T05:23:10.003Z,18.52
2023-04-08T05:25:36.644Z,19.98
2023-04-08T05:28:03.293Z,18.23
2023-04-08T05:30:30.042Z,19.58
2023-04-08T05:32:59.306Z,19.88
2023-04-08T05:35:26.575Z,18.60
2023-04-08T05:37:53.071Z,17.92
2023-04-08T05:40:19.937Z,19.30
2023-04-08T05:42:46.633Z,18.30
2023-04-08T05:45:13.000Z,19.40
2023-04-08T05:47:39.515Z,19.95
2023-04-08T05:50:06.092Z,18.83
2023-04-08T05:52:32.553Z,18.02
2023-04-08T05:54:58.871Z,19.92
2023-04-08T05:57:25.193Z,19.67
2023-04-08T05:59:51.600Z,21.00
2023-04-08T06:02:18.078Z,19.73
2023-04-08T06:04:44.521Z,19.40
2023-04-08T06:07:10.995Z,19.90
2023-04-08T06:09:37.427Z,20.10
2023-04-08T06:12:04.019Z,19.55
2023-04-08T06:14:30.491Z,18.38
2023-04-08T06:16:56.914Z,18.65
2023-04-08T06:19:23.233Z,20.33
2023-04-08T06:21:49.697Z,19.17
2023-04-08T06:24:16.444Z,19.33
2023-04-08T06:26:42.737Z,18.27
2023-04-08T06:29:09.061Z,18.58
2023-04-08T06:31:35.478Z,18.58
2023-04-08T06:34:02.088Z,18.77
2023-04-08T06:36:28.412Z,19.95
2023-04-08T06:38:54.904Z,18.50
2023-04-08T06:41:21.334Z,20.05
2023-04-08T06:43:47.774Z,19.02
2023-04-08T06:46:14.344Z,18.10
2023-04-08T06:48:41.204Z,19.58
2023-04-08T06:51:07.542Z,18.40
2023-04-08T06:53:33.885Z,18.63
2023-04-08T06:56:00.197Z,18.48
2023-04-08T06:58:27.027Z,19.52
2023-04-08T07:00:53.400Z,19.27
2023-04-08T07:03:20.163Z,17.92
2023-04-08T07:05:46.539Z,18.58
2023-04-08T07:08:13.273Z,18.90
2023-04-08T07:10:39.805Z,18.02
2023-04-08T07:13:06.188Z,18.13
2023-04-08T07:15:32.745Z,18.45
2023-04-08T07:17:59.228Z,18.52
2023-04-08T07:20:25.854Z,17.70
2023-04-08T07:22:52.200Z,18.27
2023-04-08T07:25:19.161Z,17.33
2023-04-08T07:27:45.540Z,17.35
2023-04-08T07:30:11.974Z,18.45
2023-04-08T07:32:38.303Z,17.95
2023-04-08T07:35:04.669Z,17.63
2023-04-08T07:37:30.978Z,18.42
2023-04-08T07:39:57.524Z,18.35
2023-04-08T07:42:24.002Z,17.42
2023-04-08T07:44:50.627Z,17.48
2023-04-08T07:47:17.081Z,18.60
2023-04-08T07:49:43.399Z,18.75
2023-04-08T07:52:09.767Z,18.13
2023-04-08T07:54:36.271Z,18.73
2023-04-08T07:57:02.653Z,18.85
2023-04-08T07:59:29.763Z,19.08
2023-04-08T08:01:56.180Z,19.35
2023-04-08T08:04:23.120Z,18.60
2023-04-08T08:06:49.610Z,18.70
2023-04-08T08:09:15.967Z,18.92
2023-04-08T08:11:42.382Z,19.73
2023-04-08T08:14:08.676Z,18.90
2023-04-08T08:16:35.420Z,19.58
2023-04-08T08:19:01.893Z,18.75
2023-04-08T08:21:28.335Z,17.98
2023-04-08T08:23:54.883Z,18.33
2023-04-08T08:26:21.259Z,18.60
2023-04-08T08:28:47.601Z,17.77
2023-04-08T08:31:14.131Z,19.65
2023-04-08T08:33:40.708Z,18.80
2023-04-08T08:36:07.118Z,19.80
2023-04-08T08:38:33.633Z,18.80
2023-04-08T08:40:59.984Z,20.00
2023-04-08T08:43:26.648Z,19.38
2023-04-08T08:45:53.425Z,18.40
2023-04-08T08:48:20.051Z,18.52
2023-04-08T08:50:46.606Z,18.98
2023-04-08T08:53:13.153Z,18.50
2023-04-08T08:56:05.504Z,18.83
2023-04-08T08:58:26.061Z,17.73
2023-04-08T09:00:52.392Z,18.20
2023-04-08T09:03:18.939Z,18.77
2023-04-08T09:05:45.723Z,18.25
2023-04-08T09:08:12.192Z,18.70
2023-04-08T09:10:38.737Z,18.05
2023-04-08T09:13:05.070Z,17.42
2023-04-08T09:15:31.678Z,16.83
2023-04-08T09:17:58.081Z,17.58
2023-04-08T09:20:24.594Z,17.88
2023-04-08T09:22:50.915Z,17.77
2023-04-08T09:25:17.320Z,16.23
2023-04-08T09:27:43.658Z,17.63
2023-04-08T09:30:10.024Z,17.80
2023-04-08T09:32:36.511Z,17.55
2023-04-08T09:35:04.302Z,16.73
2023-04-08T09:37:32.486Z,18.00
2023-04-08T09:39:59.218Z,16.58
2023-04-08T09:42:25.639Z,16.48
2023-04-08T09:44:52.078Z,17.23
2023-04-08T09:47:18.373Z,17.15
2023-04-08T09:49:44.782Z,17.48
2023-04-08T09:52:11.158Z,17.63
2023-04-08T09:54:37.810Z,16.65
2023-04-08T09:57:04.146Z,16.75
2023-04-08T09:59:30.446Z,16.60
2023-04-08T10:01:57.045Z,16.75
2023-04-08T10:04:23.645Z,16.35
2023-04-08T10:06:50.468Z,14.88
2023-04-08T10:09:17.044Z,15.35
2023-04-08T10:11:43.362Z,16.48
2023-04-08T10:14:09.696Z,16.63
2023-04-08T10:16:36.180Z,16.38
2023-04-08T10:19:02.875Z,16.10
2023-04-08T10:21:29.309Z,15.88
2023-04-08T10:23:55.578Z,16.40
2023-04-08T10:26:21.966Z,16.80
2023-04-08T10:28:48.346Z,16.35
2023-04-08T10:31:14.696Z,15.60
2023-04-08T10:33:41.312Z,16.50
2023-04-08T10:36:07.797Z,15.45
2023-04-08T10:38:34.563Z,15.45
2023-04-08T10:41:01.017Z,15.27
2023-04-08T10:43:27.514Z,15.80
2023-04-08T10:45:53.989Z,15.30
2023-04-08T10:48:20.560Z,15.05
2023-04-08T10:50:46.965Z,15.75
2023-04-08T10:53:13.292Z,16.27
2023-04-08T10:55:39.675Z,14.95
2023-04-08T10:58:06.030Z,15.60
2023-04-08T11:00:32.380Z,14.82
2023-04-08T11:02:59.300Z,15.25
2023-04-08T11:05:25.700Z,16.05
2023-04-08T11:07:52.178Z,15.80
2023-04-08T11:10:18.618Z,14.52
2023-04-08T11:12:45.025Z,14.88
2023-04-08T11:15:11.358Z,14.93
2023-04-08T11:17:37.871Z,15.57
2023-04-08T11:20:04.345Z,15.75
2023-04-08T11:22:30.692Z,16.13
2023-04-08T11:24:57.462Z,15.25
2023-04-08T11:27:23.834Z,16.00
2023-04-08T11:29:50.151Z,15.13
2023-04-08T11:32:16.441Z,16.42
2023-04-08T11:34:42.934Z,14.80
2023-04-08T11:37:09.459Z,15.68
2023-04-08T11:39:35.918Z,16.55
2023-04-08T11:42:02.249Z,15.35
2023-04-08T11:44:28.575Z,15.25
2023-04-08T11:46:54.894Z,15.88
2023-04-08T11:49:21.404Z,15.77
2023-04-08T11:51:47.706Z,15.77
2023-04-08T11:54:14.049Z,16.17
2023-04-08T11:56:40.453Z,15.25
2023-04-08T11:59:07.023Z,16.08
2023-04-08T12:01:33.444Z,15.65
2023-04-08T12:04:00.297Z,15.63
2023-04-08T12:06:26.893Z,15.63
2023-04-08T12:08:53.275Z,15.77
2023-04-08T12:11:20.333Z,15.00
2023-04-08T12:13:46.688Z,15.30
2023-04-08T12:16:13.078Z,15.82
2023-04-08T12:18:39.783Z,15.23
2023-04-08T12:21:06.405Z,16.52
2023-04-08T12:23:32.767Z,14.63
2023-04-08T12:25:59.475Z,15.48
2023-04-08T12:28:25.772Z,16.88
2023-04-08T12:30:52.201Z,15.52
2023-04-08T12:33:18.488Z,15.32
2023-04-08T12:35:45.010Z,14.75
2023-04-08T12:38:11.439Z,14.75
2023-04-08T12:40:37.883Z,15.55
2023-04-08T12:43:04.444Z,15.05
2023-04-08T12:45:30.998Z,15.07
2023-04-08T12:47:57.430Z,15.02
2023-04-08T12:50:23.831Z,15.13
2023-04-08T12:52:50.422Z,15.40
2023-04-08T12:55:16.703Z,14.13
2023-04-08T12:57:43.141Z,15.27
2023-04-08T13:00:09.653Z,15.27
2023-04-08T13:02:36.083Z,15.35
2023-04-08T13:05:02.520Z,15.45
2023-04-08T13:07:29.214Z,15.23
2023-04-08T13:09:55.678Z,14.65
2023-04-08T13:12:22.125Z,15.70
2023-04-08T13:14:48.536Z,15.73
2023-04-08T13:17:14.869Z,15.73
2023-04-08T13:19:41.529Z,15.00
2023-04-08T13:22:07.900Z,15.15
2023-04-08T13:24:34.574Z,15.00
2023-04-08T13:27:00.882Z,16.60
2023-04-08T13:29:27.162Z,15.48
2023-04-08T13:31:53.629Z,16.58
2023-04-08T13:34:20.055Z,15.27
2023-04-08T13:36:46.512Z,15.38
2023-04-08T13:39:12.802Z,15.40
2023-04-08T13:41:39.091Z,15.88
2023-04-08T13:44:05.495Z,16.05
2023-04-08T13:46:31.957Z,16.33
2023-04-08T13:48:58.386Z,14.90
2023-04-08T13:51:25.006Z,15.50
2023-04-08T13:53:51.742Z,15.45
2023-04-08T13:56:18.288Z,16.23
2023-04-08T13:58:49.693Z,16.10
2023-04-08T14:01:18.812Z,15.95
2023-04-08T14:03:45.444Z,15.80
2023-04-08T14:06:11.774Z,16.70
2023-04-08T14:08:38.103Z,15.00
2023-04-08T14:11:04.651Z,16.83
2023-04-08T14:13:31.084Z,17.38
2023-04-08T14:15:57.396Z,17.50
2023-04-08T14:18:23.970Z,17.23
2023-04-08T14:20:50.266Z,16.55
2023-04-08T14:23:17.412Z,17.05
2023-04-08T14:25:43.857Z,18.75
2023-04-08T14:28:10.199Z,17.48
2023-04-08T14:30:36.891Z,18.13
2023-04-08T14:33:03.367Z,16.98
2023-04-08T14:35:29.803Z,17.05
2023-04-08T14:37:56.176Z,18.02
2023-04-08T14:40:22.751Z,17.25
2023-04-08T14:42:49.165Z,19.67
2023-04-08T14:45:15.494Z,17.20
2023-04-08T14:47:41.849Z,17.17
2023-04-08T14:50:08.178Z,18.50
2023-04-08T14:52:34.604Z,17.52
2023-04-08T14:55:01.006Z,19.63
2023-04-08T14:57:27.743Z,19.60
2023-04-08T14:59:54.123Z,19.45
2023-04-08T15:02:20.688Z,17.42
2023-04-08T15:04:47.441Z,17.70
2023-04-08T15:07:13.909Z,19.05
2023-04-08T15:09:40.198Z,18.45
2023-04-08T15:12:07.067Z,18.95
2023-04-08T15:14:33.412Z,18.15
2023-04-08T15:16:59.967Z,18.67
2023-04-08T15:19:26.476Z,20.77
2023-04-08T15:21:53.171Z,18.70
2023-04-08T15:24:20.170Z,18.42
2023-04-08T15:26:46.733Z,18.08
2023-04-08T15:29:13.087Z,19.05
2023-04-08T15:31:39.674Z,19.50
2023-04-08T15:34:06.296Z,19.50
2023-04-08T15:36:32.824Z,18.67
2023-04-08T15:38:59.165Z,19.15
2023-04-08T15:41:25.444Z,18.95
2023-04-08T15:43:51.860Z,18.48
2023-04-08T15:46:18.630Z,20.30
2023-04-08T15:48:45.130Z,20.38
2023-04-08T15:51:11.702Z,18.05
2023-04-08T15:53:38.237Z,19.38
2023-04-08T15:56:04.786Z,18.83
2023-04-08T15:58:31.110Z,19.13
2023-04-08T16:00:57.434Z,19.60
2023-04-08T16:03:24.012Z,19.35
2023-04-08T16:05:50.512Z,20.55
2023-04-08T16:08:16.877Z,19.75
2023-04-08T16:10:43.145Z,19.98
2023-04-08T16:13:09.784Z,19.13
2023-04-08T16:15:36.284Z,19.13
2023-04-08T16:18:02.619Z,17.95
2023-04-08T16:20:28.980Z,18.98
2023-04-08T16:22:55.250Z,18.83
2023-04-08T16:25:21.573Z,19.05
2023-04-08T16:27:48.393Z,19.30
2023-04-08T16:30:15.068Z,19.02
2023-04-08T16:32:41.473Z,19.77
2023-04-08T16:35:07.961Z,19.20
2023-04-08T16:37:34.474Z,18.27
2023-04-08T16:40:01.193Z,18.67
2023-04-08T16:42:27.856Z,18.77
2023-04-08T16:44:54.212Z,18.05
2023-04-08T16:47:20.996Z,20.25
2023-04-08T16:49:47.733Z,18.70
2023-04-08T16:52:14.191Z,18.98
2023-04-08T16:54:40.593Z,19.83
2023-04-08T16:57:06.968Z,18.75
2023-04-08T16:59:33.333Z,19.02
2023-04-08T17:01:59.900Z,18.30
2023-04-08T17:04:26.658Z,18.00
2023-04-08T17:06:53.200Z,19.05
2023-04-08T17:09:19.680Z,19.40
2023-04-08T17:11:46.169Z,18.38
2023-04-08T17:14:12.478Z,18.52
2023-04-08T17:16:38.905Z,18.55
2023-04-08T17:19:05.197Z,18.35
2023-04-08T17:21:31.877Z,18.70
2023-04-08T17:23:58.433Z,19.38
2023-04-08T17:26:24.835Z,19.27
2023-04-08T17:28:51.366Z,18.65
2023-04-08T17:31:17.840Z,19.38
2023-04-08T17:33:44.360Z,20.05
2023-04-08T17:36:10.663Z,20.30
2023-04-08T17:38:37.799Z,20.73
2023-04-08T17:41:04.614Z,425.77
2023-04-08T17:43:31.036Z,433.70
2023-04-08T17:45:57.411Z,304.17
2023-04-08T17:48:23.850Z,250.68
2023-04-08T17:50:50.243Z,232.30
2023-04-08T17:53:16.760Z,223.38
2023-04-08T17:55:43.119Z,218.25
2023-04-08T17:58:09.847Z,213.73
2023-04-08T18:00:36.500Z,209.90
2023-04-08T18:03:03.278Z,201.50
2023-04-08T18:05:29.937Z,345.77
2023-04-08T18:07:56.999Z,591.88
2023-04-08T18:10:23.689Z,604.83
2023-04-08T18:12:50.791Z,472.42
2023-04-08T18:15:21.305Z,398.95
2023-04-08T18:17:47.859Z,370.45
2023-04-08T18:20:14.200Z,348.58
2023-04-08T18:22:40.487Z,444.70
2023-04-08T18:25:06.887Z,533.92
2023-04-08T18:27:33.228Z,558.97
2023-04-08T18:29:59.585Z,494.65
2023-04-08T18:32:25.917Z,536.70
2023-04-08T18:34:52.569Z,594.17
2023-04-08T18:37:18.990Z,599.72
2023-04-08T18:39:45.494Z,551.00
2023-04-08T18:42:12.177Z,528.97
2023-04-08T18:44:38.453Z,506.05
2023-04-08T18:47:04.778Z,490.20
2023-04-08T18:49:32.023Z,460.92
2023-04-08T18:52:02.944Z,417.40
2023-04-08T18:54:30.177Z,577.00
2023-04-08T18:56:56.595Z,551.22
2023-04-08T18:59:22.878Z,511.90
2023-04-08T19:01:49.294Z,496.58
2023-04-08T19:04:15.831Z,492.08
2023-04-08T19:06:42.186Z,494.27
2023-04-08T19:09:08.710Z,497.40
2023-04-08T19:11:35.077Z,488.42
2023-04-08T19:14:01.701Z,485.27
2023-04-08T19:16:28.000Z,480.05
2023-04-08T19:18:54.414Z,487.30
2023-04-08T19:21:20.774Z,477.38
2023-04-08T19:23:47.327Z,480.00
2023-04-08T19:26:13.686Z,477.50
2023-04-08T19:28:40.057Z,481.45
2023-04-08T19:31:06.491Z,468.98
2023-04-08T19:33:33.141Z,455.85
2023-04-08T19:35:59.599Z,461.80
2023-04-08T19:38:26.973Z,459.65
2023-04-08T19:40:53.493Z,455.80
2023-04-08T19:43:19.878Z,455.58
2023-04-08T19:45:46.260Z,445.50
2023-04-08T19:48:12.834Z,452.70
2023-04-08T19:50:39.614Z,441.25
2023-04-08T19:53:06.252Z,438.55
2023-04-08T19:55:32.539Z,431.00
2023-04-08T19:57:59.614Z,436.25
2023-04-08T20:00:26.245Z,430.17
2023-04-08T20:02:52.916Z,435.48
2023-04-08T20:05:19.546Z,435.38
2023-04-08T20:07:46.123Z,413.50
2023-04-08T20:10:12.454Z,414.73
2023-04-08T20:12:39.176Z,418.38
2023-04-08T20:15:06.518Z,412.25
2023-04-08T20:17:33.155Z,408.08
2023-04-08T20:19:59.517Z,400.38
2023-04-08T20:22:25.872Z,396.13
2023-04-08T20:24:52.202Z,388.52
2023-04-08T20:27:19.249Z,392.15
2023-04-08T20:29:45.529Z,383.95
2023-04-08T20:32:12.058Z,391.55
2023-04-08T20:34:38.485Z,374.70
2023-04-08T20:37:04.838Z,365.92
2023-04-08T20:39:31.184Z,367.65
2023-04-08T20:41:57.532Z,363.52
2023-04-08T20:44:23.917Z,360.80
2023-04-08T20:46:50.276Z,364.15
2023-04-08T20:49:16.843Z,352.50
2023-04-08T20:51:43.142Z,357.27
2023-04-08T20:54:09.665Z,347.95
2023-04-08T20:56:36.124Z,342.15
2023-04-08T20:59:02.534Z,338.40
2023-04-08T21:01:29.067Z,343.25
2023-04-08T21:03:55.597Z,333.60
2023-04-08T21:06:21.898Z,329.02
2023-04-08T21:08:48.215Z,322.67
2023-04-08T21:11:14.620Z,316.67
2023-04-08T21:13:40.970Z,322.33
2023-04-08T21:16:08.374Z,312.42
2023-04-08T21:18:34.725Z,311.05
2023-04-08T21:21:00.995Z,308.38
2023-04-08T21:23:27.405Z,304.35
2023-04-08T21:25:53.805Z,298.83
2023-04-08T21:28:20.154Z,300.92
2023-04-08T21:30:46.472Z,291.88
2023-04-08T21:33:12.872Z,288.17
2023-04-08T21:35:39.572Z,286.35
2023-04-08T21:38:06.070Z,283.40
2023-04-08T21:40:32.468Z,279.35
2023-04-08T21:42:58.775Z,281.15
2023-04-08T21:45:25.077Z,269.83
2023-04-08T21:47:51.392Z,267.85
2023-04-08T21:50:17.791Z,265.55
2023-04-08T21:52:44.179Z,265.05
2023-04-08T21:55:10.603Z,260.90
2023-04-08T21:57:37.286Z,263.75
2023-04-08T22:00:03.687Z,252.65
2023-04-08T22:02:31.719Z,251.95
2023-04-08T22:04:58.226Z,250.25
2023-04-08T22:07:25.103Z,248.90
2023-04-08T22:09:51.666Z,244.93
2023-04-08T22:12:18.108Z,243.05
2023-04-08T22:14:44.621Z,238.27
2023-04-08T22:17:11.556Z,230.95
2023-04-08T22:19:37.917Z,230.25
2023-04-08T22:22:04.274Z,228.32
2023-04-08T22:24:30.816Z,223.10
2023-04-08T22:26:57.145Z,215.32
2023-04-08T22:29:23.703Z,211.38
2023-04-08T22:31:50.101Z,216.63
2023-04-08T22:34:16.520Z,213.68
2023-04-08T22:36:43.172Z,210.25
2023-04-08T22:39:09.560Z,207.68
2023-04-08T22:41:35.897Z,200.63
2023-04-08T22:44:02.296Z,200.70
2023-04-08T22:46:28.731Z,197.07
2023-04-08T22:48:55.402Z,197.38
2023-04-08T22:51:21.773Z,191.65
2023-04-08T22:53:48.251Z,192.52
2023-04-08T22:56:14.864Z,189.38
2023-04-08T22:58:41.162Z,184.50
2023-04-08T23:01:07.571Z,180.05
2023-04-08T23:03:34.026Z,176.48
2023-04-08T23:06:00.568Z,179.68
2023-04-08T23:08:27.413Z,170.90
2023-04-08T23:10:54.116Z,169.55
2023-04-08T23:13:20.540Z,173.02
2023-04-08T23:15:47.180Z,166.70
2023-04-08T23:18:13.687Z,163.20
2023-04-08T23:20:40.019Z,162.90
2023-04-08T23:23:06.504Z,161.60
2023-04-08T23:25:32.860Z,158.98
2023-04-08T23:27:59.152Z,157.43
2023-04-08T23:30:26.131Z,150.73
2023-04-08T23:32:52.503Z,151.63
2023-04-08T23:35:18.866Z,151.57
2023-04-08T23:37:45.171Z,151.73
2023-04-08T23:40:11.700Z,149.13
2023-04-08T23:42:38.114Z,141.82
2023-04-08T23:45:04.538Z,142.02
2023-04-08T23:47:31.260Z,138.73
2023-04-08T23:49:58.073Z,136.80
2023-04-08T23:52:24.433Z,136.98
2023-04-08T23:54:50.810Z,132.68
2023-04-08T23:57:17.731Z,132.77
2023-04-08T23:59:44.017Z,133.18
